logo meteosicilia

Diretta Meteo Ornskoldsvik, Sveziadomenica 19 maggio ore 06:50

Mappa
Sereno 15 °C Molto Nuvoloso 24 Ore: T.min 7 T.max 22
Ponente Sud/Sud-Ovest Km/h 7.4 Punto di rugiada: 7 °C Umidità: 58% Visibilità: 10 Km
Il sole sorge alle: 03:19 Il sole tramonta alle: 22:01
19 Maggio 2024 06:50 tempo osservato: Molto Nuvoloso Molto Nuvoloso 15 58 1009 vento: Nord S/SO 7.4
19 Maggio 2024 06:20 tempo osservato: Molto Nuvoloso Molto Nuvoloso 15 54 1009 vento: Nord N 3.7
19 Maggio 2024 05:50 tempo osservato: Nuvoloso Nuvoloso 14 58 1008 vento: Nord NO 11.1
19 Maggio 2024 05:20 tempo osservato: Molto Nuvoloso Molto Nuvoloso 13 62 1008 vento: Nord NO 14.8
19 Maggio 2024 04:50 tempo osservato: Coperto Coperto 14 58 1008 vento: Nord NO 18.5
19 Maggio 2024 04:20 tempo osservato: Molto Nuvoloso Molto Nuvoloso 14 58 1008 vento: Nord NO 18.5
19 Maggio 2024 03:50 tempo osservato: Poco Nuvoloso Poco Nuvoloso 14 58 1008 vento: Nord NO 18.5
19 Maggio 2024 03:20 tempo osservato: Poco Nuvoloso Poco Nuvoloso 14 58 1008 vento: Nord NO 24
19 Maggio 2024 02:50 tempo osservato: Coperto Coperto 14 58 1009 vento: Nord NO 24
19 Maggio 2024 02:20 tempo osservato: Nuvoloso Nuvoloso 14 58 1008 vento: Nord NO 18.5
19 Maggio 2024 01:50 tempo osservato: Sereno Sereno 8 75 1008 vento: Nord NO 9.3
19 Maggio 2024 01:20 tempo osservato: Sereno Sereno 8 75 1008 vento: Nord NO 11.1
19 Maggio 2024 00:50 tempo osservato: Poco Nuvoloso Poco Nuvoloso 7 75 1008 vento: Nord O 7.4
19 Maggio 2024 00:20 tempo osservato: Sereno Sereno 8 75 1008 vento: Nord N 3.7
18 Maggio 2024 23:50 tempo osservato: Molto Nuvoloso Molto Nuvoloso 9 70 1008 vento: Nord SO 7.4
18 Maggio 2024 23:20 tempo osservato: Sereno Sereno 9 70 1009 vento: Nord N 5.5
18 Maggio 2024 22:50 tempo osservato: Sereno Sereno 11 66 1009 vento: Nord N 3.7
18 Maggio 2024 22:20 tempo osservato: Sereno Sereno 12 57 1009 vento: Nord N 5.5
18 Maggio 2024 21:50 tempo osservato: Sereno Sereno 13 54 1009 vento: Nord N 5.5
18 Maggio 2024 21:20 tempo osservato: Sereno Sereno 14 50 1009 vento: Nord S/SO 7.4
18 Maggio 2024 20:50 tempo osservato: Sereno Sereno 15 47 1009 vento: Nord S 11.1
18 Maggio 2024 20:20 tempo osservato: Sereno Sereno 17 41 1010 vento: Nord S/SO 11.1
18 Maggio 2024 19:50 tempo osservato: Sereno Sereno 18 36 1010 vento: Nord S/SO 16.7
18 Maggio 2024 19:20 tempo osservato: Sereno Sereno 19 34 1010 vento: Nord S 18.5
18 Maggio 2024 18:50 tempo osservato: Sereno Sereno 19 34 1010 vento: Nord S/SO 22.2
18 Maggio 2024 18:20 tempo osservato: Sereno Sereno 19 37 1010 vento: Nord S/SO 20.3
18 Maggio 2024 17:50 tempo osservato: Sereno Sereno 19 37 1011 vento: Nord S 22.2
18 Maggio 2024 17:20 tempo osservato: Sereno Sereno 20 34 1011 vento: Nord S/SO 25.9
18 Maggio 2024 16:50 tempo osservato: Sereno Sereno 20 34 1011 vento: Nord S 27.8
18 Maggio 2024 16:20 tempo osservato: Sereno Sereno 20 34 1011 vento: Nord S/SO 27.8
18 Maggio 2024 15:50 tempo osservato: Sereno Sereno 20 34 1012 vento: Nord S 29.6
18 Maggio 2024 15:20 tempo osservato: Sereno Sereno 20 32 1012 vento: Nord S 27.8
18 Maggio 2024 14:50 tempo osservato: Sereno Sereno 20 32 1012 vento: Nord S 31.5
18 Maggio 2024 14:20 tempo osservato: Sereno Sereno 21 30 1013 vento: Nord S 31.5
18 Maggio 2024 13:50 tempo osservato: Poco Nuvoloso Poco Nuvoloso 21 30 1013 vento: Nord S 29.6
18 Maggio 2024 13:20 tempo osservato: Poco Nuvoloso Poco Nuvoloso 21 30 1013 vento: Nord S/SO 25.9
18 Maggio 2024 12:50 tempo osservato: Sereno Sereno 22 30 1013 vento: Nord S 25.9
18 Maggio 2024 12:20 tempo osservato: Sereno Sereno 22 30 1013 vento: Nord S 22.2
18 Maggio 2024 11:50 tempo osservato: Sereno Sereno 22 28 1013 vento: Nord S 24
18 Maggio 2024 11:20 tempo osservato: Sereno Sereno 22 30 1014 vento: Nord S 24
18 Maggio 2024 10:50 tempo osservato: Sereno Sereno 22 26 1014 vento: Nord S 20.3
18 Maggio 2024 10:20 tempo osservato: Sereno Sereno 22 26 1014 vento: Nord SO 20.3
18 Maggio 2024 09:50 tempo osservato: Sereno Sereno 21 30 1014 vento: Nord SO 16.7
18 Maggio 2024 09:20 tempo osservato: Sereno Sereno 20 34 1014 vento: Nord SO 14.8
18 Maggio 2024 08:50 tempo osservato: Sereno Sereno 19 37 1014 vento: Nord SO 11.1
18 Maggio 2024 08:20 tempo osservato: Sereno Sereno 18 42 1014 vento: Nord S/SO 11.1
18 Maggio 2024 07:50 tempo osservato: Sereno Sereno 17 45 1014 vento: Nord SO 11.1